sensor_id;sensor_type;location;lat;lon;timestamp;P1;durP1;ratioP1;P2;durP2;ratioP2
46377;SDS011;32083;47.360;9.650;2023-02-18T00:04:06;8.43;;;5.57;;
46377;SDS011;32083;47.360;9.650;2023-02-18T00:06:57;7.68;;;6.18;;
46377;SDS011;32083;47.360;9.650;2023-02-18T00:09:38;8.27;;;6.60;;
46377;SDS011;32083;47.360;9.650;2023-02-18T00:12:15;11.25;;;6.57;;
46377;SDS011;32083;47.360;9.650;2023-02-18T00:14:54;9.45;;;5.70;;
46377;SDS011;32083;47.360;9.650;2023-02-18T00:17:30;10.75;;;6.95;;
46377;SDS011;32083;47.360;9.650;2023-02-18T00:20:08;7.43;;;6.07;;
46377;SDS011;32083;47.360;9.650;2023-02-18T00:22:37;7.90;;;5.68;;
46377;SDS011;32083;47.360;9.650;2023-02-18T00:25:04;9.43;;;6.75;;
46377;SDS011;32083;47.360;9.650;2023-02-18T00:27:41;8.15;;;6.10;;
46377;SDS011;32083;47.360;9.650;2023-02-18T00:30:11;9.65;;;6.13;;
46377;SDS011;32083;47.360;9.650;2023-02-18T00:32:44;8.30;;;5.90;;
46377;SDS011;32083;47.360;9.650;2023-02-18T00:35:18;10.13;;;6.45;;
46377;SDS011;32083;47.360;9.650;2023-02-18T00:38:11;12.13;;;6.80;;
46377;SDS011;32083;47.360;9.650;2023-02-18T00:41:07;8.90;;;6.90;;
46377;SDS011;32083;47.360;9.650;2023-02-18T00:46:15;10.43;;;7.38;;
46377;SDS011;32083;47.360;9.650;2023-02-18T00:48:43;12.82;;;9.05;;
46377;SDS011;32083;47.360;9.650;2023-02-18T00:51:16;10.77;;;8.25;;
46377;SDS011;32083;47.360;9.650;2023-02-18T00:54:03;9.95;;;7.63;;
46377;SDS011;32083;47.360;9.650;2023-02-18T00:56:31;10.75;;;7.82;;
46377;SDS011;32083;47.360;9.650;2023-02-18T00:59:02;10.25;;;7.85;;
46377;SDS011;32083;47.360;9.650;2023-02-18T01:01:31;9.75;;;7.78;;
46377;SDS011;32083;47.360;9.650;2023-02-18T01:04:08;12.90;;;8.95;;
46377;SDS011;32083;47.360;9.650;2023-02-18T01:06:34;12.93;;;9.15;;
46377;SDS011;32083;47.360;9.650;2023-02-18T01:09:01;12.27;;;8.70;;
46377;SDS011;32083;47.360;9.650;2023-02-18T01:11:30;15.20;;;8.70;;
46377;SDS011;32083;47.360;9.650;2023-02-18T01:14:07;12.18;;;7.25;;
46377;SDS011;32083;47.360;9.650;2023-02-18T01:16:41;9.75;;;7.03;;
46377;SDS011;32083;47.360;9.650;2023-02-18T01:19:12;9.65;;;7.28;;
46377;SDS011;32083;47.360;9.650;2023-02-18T01:21:39;8.55;;;6.72;;
46377;SDS011;32083;47.360;9.650;2023-02-18T01:24:11;10.43;;;6.82;;
46377;SDS011;32083;47.360;9.650;2023-02-18T01:27:04;7.30;;;6.13;;
46377;SDS011;32083;47.360;9.650;2023-02-18T01:29:35;8.35;;;6.75;;
46377;SDS011;32083;47.360;9.650;2023-02-18T01:32:03;8.25;;;5.93;;
46377;SDS011;32083;47.360;9.650;2023-02-18T01:34:40;11.82;;;7.13;;
46377;SDS011;32083;47.360;9.650;2023-02-18T01:37:07;8.85;;;6.03;;
46377;SDS011;32083;47.360;9.650;2023-02-18T01:39:42;8.73;;;6.25;;
46377;SDS011;32083;47.360;9.650;2023-02-18T01:42:24;11.48;;;7.82;;
46377;SDS011;32083;47.360;9.650;2023-02-18T01:44:53;9.52;;;6.43;;
46377;SDS011;32083;47.360;9.650;2023-02-18T01:47:40;8.73;;;6.65;;
46377;SDS011;32083;47.360;9.650;2023-02-18T01:50:17;7.95;;;6.25;;
46377;SDS011;32083;47.360;9.650;2023-02-18T01:52:54;8.70;;;6.20;;
46377;SDS011;32083;47.360;9.650;2023-02-18T01:55:29;8.43;;;7.18;;
46377;SDS011;32083;47.360;9.650;2023-02-18T01:57:56;9.10;;;6.72;;
46377;SDS011;32083;47.360;9.650;2023-02-18T02:00:25;9.48;;;6.70;;
46377;SDS011;32083;47.360;9.650;2023-02-18T02:02:57;8.20;;;5.93;;
46377;SDS011;32083;47.360;9.650;2023-02-18T02:05:33;7.43;;;6.13;;
46377;SDS011;32083;47.360;9.650;2023-02-18T02:08:10;10.38;;;5.53;;
46377;SDS011;32083;47.360;9.650;2023-02-18T02:10:50;8.15;;;5.15;;
46377;SDS011;32083;47.360;9.650;2023-02-18T02:14:05;6.97;;;6.03;;
46377;SDS011;32083;47.360;9.650;2023-02-18T02:17:06;8.55;;;5.15;;
46377;SDS011;32083;47.360;9.650;2023-02-18T02:22:53;10.10;;;5.43;;
46377;SDS011;32083;47.360;9.650;2023-02-18T02:25:38;9.73;;;6.88;;
46377;SDS011;32083;47.360;9.650;2023-02-18T02:43:26;6.32;;;5.65;;
46377;SDS011;32083;47.360;9.650;2023-02-18T02:49:01;3.97;;;2.92;;
46377;SDS011;32083;47.360;9.650;2023-02-18T02:51:37;5.35;;;4.68;;
46377;SDS011;32083;47.360;9.650;2023-02-18T02:54:26;6.13;;;4.88;;
46377;SDS011;32083;47.360;9.650;2023-02-18T02:59:42;6.28;;;5.20;;
46377;SDS011;32083;47.360;9.650;2023-02-18T03:08:27;6.50;;;5.22;;
46377;SDS011;32083;47.360;9.650;2023-02-18T03:11:24;9.52;;;6.97;;
46377;SDS011;32083;47.360;9.650;2023-02-18T03:17:47;6.75;;;5.05;;
46377;SDS011;32083;47.360;9.650;2023-02-18T03:20:13;8.13;;;5.38;;
46377;SDS011;32083;47.360;9.650;2023-02-18T03:22:50;10.05;;;5.70;;
46377;SDS011;32083;47.360;9.650;2023-02-18T03:25:22;8.38;;;6.03;;
46377;SDS011;32083;47.360;9.650;2023-02-18T03:27:52;8.95;;;5.70;;
46377;SDS011;32083;47.360;9.650;2023-02-18T03:31:01;6.07;;;5.45;;
46377;SDS011;32083;47.360;9.650;2023-02-18T03:33:36;7.93;;;5.95;;
46377;SDS011;32083;47.360;9.650;2023-02-18T03:36:15;6.95;;;5.03;;
46377;SDS011;32083;47.360;9.650;2023-02-18T03:38:50;5.47;;;4.90;;
46377;SDS011;32083;47.360;9.650;2023-02-18T03:41:19;4.93;;;2.67;;
46377;SDS011;32083;47.360;9.650;2023-02-18T03:44:14;2.60;;;1.90;;
46377;SDS011;32083;47.360;9.650;2023-02-18T03:46:45;4.63;;;2.20;;
46377;SDS011;32083;47.360;9.650;2023-02-18T03:49:14;3.28;;;1.95;;
46377;SDS011;32083;47.360;9.650;2023-02-18T03:51:41;3.78;;;1.65;;
46377;SDS011;32083;47.360;9.650;2023-02-18T03:54:14;4.45;;;2.45;;
46377;SDS011;32083;47.360;9.650;2023-02-18T03:56:45;3.55;;;1.60;;
46377;SDS011;32083;47.360;9.650;2023-02-18T03:59:13;3.30;;;1.83;;
46377;SDS011;32083;47.360;9.650;2023-02-18T04:02:00;5.13;;;1.98;;
46377;SDS011;32083;47.360;9.650;2023-02-18T04:04:31;3.78;;;1.63;;
46377;SDS011;32083;47.360;9.650;2023-02-18T04:07:01;3.20;;;1.85;;
46377;SDS011;32083;47.360;9.650;2023-02-18T04:09:32;2.95;;;1.50;;
46377;SDS011;32083;47.360;9.650;2023-02-18T04:12:01;3.38;;;2.10;;
46377;SDS011;32083;47.360;9.650;2023-02-18T04:14:28;3.08;;;2.00;;
46377;SDS011;32083;47.360;9.650;2023-02-18T04:17:02;2.90;;;1.75;;
46377;SDS011;32083;47.360;9.650;2023-02-18T04:19:29;3.75;;;1.48;;
46377;SDS011;32083;47.360;9.650;2023-02-18T04:22:00;3.47;;;1.83;;
46377;SDS011;32083;47.360;9.650;2023-02-18T04:24:32;4.25;;;1.90;;
46377;SDS011;32083;47.360;9.650;2023-02-18T04:27:01;3.08;;;1.80;;
46377;SDS011;32083;47.360;9.650;2023-02-18T04:29:28;2.70;;;1.73;;
46377;SDS011;32083;47.360;9.650;2023-02-18T04:32:05;3.88;;;1.90;;
46377;SDS011;32083;47.360;9.650;2023-02-18T04:34:32;3.30;;;1.60;;
46377;SDS011;32083;47.360;9.650;2023-02-18T04:37:05;5.63;;;2.40;;
46377;SDS011;32083;47.360;9.650;2023-02-18T04:39:43;2.72;;;1.83;;
46377;SDS011;32083;47.360;9.650;2023-02-18T04:42:24;3.40;;;2.05;;
46377;SDS011;32083;47.360;9.650;2023-02-18T04:47:31;4.53;;;3.30;;
46377;SDS011;32083;47.360;9.650;2023-02-18T04:50:03;5.15;;;3.80;;
46377;SDS011;32083;47.360;9.650;2023-02-18T04:52:35;4.90;;;3.70;;
46377;SDS011;32083;47.360;9.650;2023-02-18T04:55:03;4.10;;;3.63;;
46377;SDS011;32083;47.360;9.650;2023-02-18T04:57:31;6.53;;;4.30;;
46377;SDS011;32083;47.360;9.650;2023-02-18T04:59:59;7.63;;;5.05;;
46377;SDS011;32083;47.360;9.650;2023-02-18T05:02:33;7.05;;;4.57;;
46377;SDS011;32083;47.360;9.650;2023-02-18T05:05:02;7.95;;;5.20;;
46377;SDS011;32083;47.360;9.650;2023-02-18T05:07:35;7.15;;;5.70;;
46377;SDS011;32083;47.360;9.650;2023-02-18T05:10:04;6.30;;;5.13;;
46377;SDS011;32083;47.360;9.650;2023-02-18T05:12:33;9.93;;;5.30;;
46377;SDS011;32083;47.360;9.650;2023-02-18T05:15:07;9.30;;;5.72;;
46377;SDS011;32083;47.360;9.650;2023-02-18T05:17:57;6.28;;;5.63;;
46377;SDS011;32083;47.360;9.650;2023-02-18T05:20:56;5.75;;;5.00;;
46377;SDS011;32083;47.360;9.650;2023-02-18T05:23:23;4.90;;;3.80;;
46377;SDS011;32083;47.360;9.650;2023-02-18T05:26:06;3.80;;;3.40;;
46377;SDS011;32083;47.360;9.650;2023-02-18T05:28:38;4.40;;;3.13;;
46377;SDS011;32083;47.360;9.650;2023-02-18T05:31:27;5.50;;;2.47;;
46377;SDS011;32083;47.360;9.650;2023-02-18T05:34:06;2.28;;;1.85;;
46377;SDS011;32083;47.360;9.650;2023-02-18T05:36:43;2.25;;;1.60;;
46377;SDS011;32083;47.360;9.650;2023-02-18T05:39:10;3.30;;;1.88;;
46377;SDS011;32083;47.360;9.650;2023-02-18T05:42:05;2.78;;;1.70;;
46377;SDS011;32083;47.360;9.650;2023-02-18T05:45:04;2.50;;;1.58;;
46377;SDS011;32083;47.360;9.650;2023-02-18T05:47:45;2.97;;;1.80;;
46377;SDS011;32083;47.360;9.650;2023-02-18T05:50:12;2.00;;;1.40;;
46377;SDS011;32083;47.360;9.650;2023-02-18T05:52:38;3.30;;;1.70;;
46377;SDS011;32083;47.360;9.650;2023-02-18T05:55:04;2.92;;;1.92;;
46377;SDS011;32083;47.360;9.650;2023-02-18T05:57:30;3.08;;;2.08;;
46377;SDS011;32083;47.360;9.650;2023-02-18T05:59:56;4.00;;;2.65;;
46377;SDS011;32083;47.360;9.650;2023-02-18T06:02:22;4.75;;;3.28;;
46377;SDS011;32083;47.360;9.650;2023-02-18T06:04:48;7.35;;;4.65;;
46377;SDS011;32083;47.360;9.650;2023-02-18T06:07:14;6.90;;;5.25;;
46377;SDS011;32083;47.360;9.650;2023-02-18T06:09:40;5.68;;;4.68;;
46377;SDS011;32083;47.360;9.650;2023-02-18T06:12:06;5.28;;;4.63;;
46377;SDS011;32083;47.360;9.650;2023-02-18T06:14:32;8.48;;;5.72;;
46377;SDS011;32083;47.360;9.650;2023-02-18T06:16:58;7.20;;;5.75;;
46377;SDS011;32083;47.360;9.650;2023-02-18T06:19:24;9.57;;;6.25;;
46377;SDS011;32083;47.360;9.650;2023-02-18T06:21:49;6.85;;;5.53;;
46377;SDS011;32083;47.360;9.650;2023-02-18T06:24:15;9.93;;;6.03;;
46377;SDS011;32083;47.360;9.650;2023-02-18T06:26:41;7.22;;;5.60;;
46377;SDS011;32083;47.360;9.650;2023-02-18T06:29:07;7.30;;;5.60;;
46377;SDS011;32083;47.360;9.650;2023-02-18T06:31:33;7.22;;;5.28;;
46377;SDS011;32083;47.360;9.650;2023-02-18T06:33:59;7.22;;;5.25;;
46377;SDS011;32083;47.360;9.650;2023-02-18T06:36:25;6.15;;;4.78;;
46377;SDS011;32083;47.360;9.650;2023-02-18T06:38:51;6.15;;;4.47;;
46377;SDS011;32083;47.360;9.650;2023-02-18T06:41:18;5.60;;;4.72;;
46377;SDS011;32083;47.360;9.650;2023-02-18T06:43:44;6.88;;;4.80;;
46377;SDS011;32083;47.360;9.650;2023-02-18T06:46:10;6.43;;;5.18;;
46377;SDS011;32083;47.360;9.650;2023-02-18T06:48:36;6.60;;;5.22;;
46377;SDS011;32083;47.360;9.650;2023-02-18T06:51:03;7.10;;;4.28;;
46377;SDS011;32083;47.360;9.650;2023-02-18T06:53:29;5.85;;;3.75;;
46377;SDS011;32083;47.360;9.650;2023-02-18T06:55:55;8.35;;;5.28;;
46377;SDS011;32083;47.360;9.650;2023-02-18T06:58:21;6.68;;;4.10;;
46377;SDS011;32083;47.360;9.650;2023-02-18T07:00:47;7.13;;;4.75;;
46377;SDS011;32083;47.360;9.650;2023-02-18T07:03:13;5.55;;;4.47;;
46377;SDS011;32083;47.360;9.650;2023-02-18T07:05:40;7.30;;;3.55;;
46377;SDS011;32083;47.360;9.650;2023-02-18T07:08:06;4.80;;;3.03;;
46377;SDS011;32083;47.360;9.650;2023-02-18T07:10:32;5.30;;;4.47;;
46377;SDS011;32083;47.360;9.650;2023-02-18T07:12:58;10.73;;;6.50;;
46377;SDS011;32083;47.360;9.650;2023-02-18T07:15:24;11.40;;;9.15;;
46377;SDS011;32083;47.360;9.650;2023-02-18T07:17:52;9.02;;;6.85;;
46377;SDS011;32083;47.360;9.650;2023-02-18T07:20:19;7.82;;;6.55;;
46377;SDS011;32083;47.360;9.650;2023-02-18T07:22:45;8.38;;;6.35;;
46377;SDS011;32083;47.360;9.650;2023-02-18T07:25:12;6.70;;;4.53;;
46377;SDS011;32083;47.360;9.650;2023-02-18T07:27:38;6.80;;;4.18;;
46377;SDS011;32083;47.360;9.650;2023-02-18T07:30:04;4.10;;;3.25;;
46377;SDS011;32083;47.360;9.650;2023-02-18T07:32:31;6.10;;;3.97;;
46377;SDS011;32083;47.360;9.650;2023-02-18T07:34:57;5.97;;;4.70;;
46377;SDS011;32083;47.360;9.650;2023-02-18T07:37:23;5.50;;;4.00;;
46377;SDS011;32083;47.360;9.650;2023-02-18T07:39:49;5.75;;;3.70;;
46377;SDS011;32083;47.360;9.650;2023-02-18T07:42:15;7.95;;;4.15;;
46377;SDS011;32083;47.360;9.650;2023-02-18T07:44:40;6.15;;;4.05;;
46377;SDS011;32083;47.360;9.650;2023-02-18T07:47:07;5.03;;;4.50;;
46377;SDS011;32083;47.360;9.650;2023-02-18T07:49:36;12.48;;;7.90;;
46377;SDS011;32083;47.360;9.650;2023-02-18T07:52:02;6.82;;;4.18;;
46377;SDS011;32083;47.360;9.650;2023-02-18T07:54:28;5.55;;;3.95;;
46377;SDS011;32083;47.360;9.650;2023-02-18T07:56:54;6.47;;;3.28;;
46377;SDS011;32083;47.360;9.650;2023-02-18T07:59:20;6.72;;;3.47;;
46377;SDS011;32083;47.360;9.650;2023-02-18T08:01:46;7.38;;;3.10;;
46377;SDS011;32083;47.360;9.650;2023-02-18T08:04:12;4.65;;;2.75;;
46377;SDS011;32083;47.360;9.650;2023-02-18T08:06:40;8.63;;;3.47;;
46377;SDS011;32083;47.360;9.650;2023-02-18T08:09:08;7.65;;;4.25;;
46377;SDS011;32083;47.360;9.650;2023-02-18T08:11:35;5.95;;;3.88;;
46377;SDS011;32083;47.360;9.650;2023-02-18T08:14:01;6.15;;;4.10;;
46377;SDS011;32083;47.360;9.650;2023-02-18T08:16:27;5.30;;;3.55;;
46377;SDS011;32083;47.360;9.650;2023-02-18T08:18:53;5.78;;;4.20;;
46377;SDS011;32083;47.360;9.650;2023-02-18T08:21:20;9.55;;;7.90;;
46377;SDS011;32083;47.360;9.650;2023-02-18T08:23:47;11.05;;;8.68;;
46377;SDS011;32083;47.360;9.650;2023-02-18T08:26:13;9.32;;;7.60;;
46377;SDS011;32083;47.360;9.650;2023-02-18T08:28:39;9.32;;;5.88;;
46377;SDS011;32083;47.360;9.650;2023-02-18T08:31:06;8.05;;;6.18;;
46377;SDS011;32083;47.360;9.650;2023-02-18T08:33:32;11.55;;;5.38;;
46377;SDS011;32083;47.360;9.650;2023-02-18T08:35:58;6.68;;;3.50;;
46377;SDS011;32083;47.360;9.650;2023-02-18T08:38:24;3.65;;;2.70;;
46377;SDS011;32083;47.360;9.650;2023-02-18T08:40:50;3.25;;;2.83;;
46377;SDS011;32083;47.360;9.650;2023-02-18T08:43:26;3.45;;;2.20;;
46377;SDS011;32083;47.360;9.650;2023-02-18T08:45:52;6.93;;;3.42;;
46377;SDS011;32083;47.360;9.650;2023-02-18T08:48:18;5.72;;;2.90;;
46377;SDS011;32083;47.360;9.650;2023-02-18T08:50:44;5.72;;;3.13;;
46377;SDS011;32083;47.360;9.650;2023-02-18T08:53:10;4.57;;;3.40;;
46377;SDS011;32083;47.360;9.650;2023-02-18T08:55:38;3.75;;;3.08;;
46377;SDS011;32083;47.360;9.650;2023-02-18T08:58:05;3.97;;;2.70;;
46377;SDS011;32083;47.360;9.650;2023-02-18T09:00:31;4.03;;;3.05;;
46377;SDS011;32083;47.360;9.650;2023-02-18T09:02:58;5.18;;;2.90;;
46377;SDS011;32083;47.360;9.650;2023-02-18T09:05:24;2.33;;;1.73;;
46377;SDS011;32083;47.360;9.650;2023-02-18T09:07:50;4.97;;;1.98;;
46377;SDS011;32083;47.360;9.650;2023-02-18T09:10:15;2.72;;;1.40;;
46377;SDS011;32083;47.360;9.650;2023-02-18T09:12:41;2.50;;;1.70;;
46377;SDS011;32083;47.360;9.650;2023-02-18T09:15:07;8.63;;;3.13;;
46377;SDS011;32083;47.360;9.650;2023-02-18T09:17:33;2.22;;;1.40;;
46377;SDS011;32083;47.360;9.650;2023-02-18T09:19:59;3.55;;;1.70;;
46377;SDS011;32083;47.360;9.650;2023-02-18T09:22:25;4.45;;;1.17;;
46377;SDS011;32083;47.360;9.650;2023-02-18T09:24:52;2.65;;;1.67;;
46377;SDS011;32083;47.360;9.650;2023-02-18T09:27:17;2.47;;;1.75;;
46377;SDS011;32083;47.360;9.650;2023-02-18T09:29:43;2.72;;;1.95;;
46377;SDS011;32083;47.360;9.650;2023-02-18T09:32:09;3.58;;;1.80;;
46377;SDS011;32083;47.360;9.650;2023-02-18T09:34:36;3.30;;;1.60;;
46377;SDS011;32083;47.360;9.650;2023-02-18T09:37:02;3.13;;;1.50;;
46377;SDS011;32083;47.360;9.650;2023-02-18T09:39:29;5.20;;;2.95;;
46377;SDS011;32083;47.360;9.650;2023-02-18T09:41:56;2.47;;;1.80;;
46377;SDS011;32083;47.360;9.650;2023-02-18T09:49:37;5.47;;;2.00;;
46377;SDS011;32083;47.360;9.650;2023-02-18T09:52:09;2.35;;;1.42;;
46377;SDS011;32083;47.360;9.650;2023-02-18T09:54:36;4.78;;;1.65;;
46377;SDS011;32083;47.360;9.650;2023-02-18T09:57:02;3.20;;;1.45;;
46377;SDS011;32083;47.360;9.650;2023-02-18T09:59:30;1.95;;;1.08;;
46377;SDS011;32083;47.360;9.650;2023-02-18T10:01:56;3.42;;;1.15;;
46377;SDS011;32083;47.360;9.650;2023-02-18T10:04:27;2.40;;;1.30;;
46377;SDS011;32083;47.360;9.650;2023-02-18T10:07:50;4.00;;;1.75;;
46377;SDS011;32083;47.360;9.650;2023-02-18T10:10:20;5.82;;;1.52;;
46377;SDS011;32083;47.360;9.650;2023-02-18T10:13:14;6.32;;;1.67;;
46377;SDS011;32083;47.360;9.650;2023-02-18T10:15:43;3.05;;;1.73;;
46377;SDS011;32083;47.360;9.650;2023-02-18T10:20:47;3.17;;;1.15;;
46377;SDS011;32083;47.360;9.650;2023-02-18T10:23:15;3.92;;;1.30;;
46377;SDS011;32083;47.360;9.650;2023-02-18T10:25:42;2.88;;;0.98;;
46377;SDS011;32083;47.360;9.650;2023-02-18T10:28:10;2.42;;;1.60;;
46377;SDS011;32083;47.360;9.650;2023-02-18T10:30:45;3.92;;;1.30;;
46377;SDS011;32083;47.360;9.650;2023-02-18T10:35:53;5.82;;;1.55;;
46377;SDS011;32083;47.360;9.650;2023-02-18T10:38:40;3.65;;;1.52;;
46377;SDS011;32083;47.360;9.650;2023-02-18T10:41:46;3.88;;;1.88;;
46377;SDS011;32083;47.360;9.650;2023-02-18T10:44:16;4.50;;;2.28;;
46377;SDS011;32083;47.360;9.650;2023-02-18T10:47:03;2.78;;;0.90;;
46377;SDS011;32083;47.360;9.650;2023-02-18T10:52:18;2.00;;;1.23;;
46377;SDS011;32083;47.360;9.650;2023-02-18T10:54:52;2.08;;;1.00;;
46377;SDS011;32083;47.360;9.650;2023-02-18T10:57:22;5.32;;;1.70;;
46377;SDS011;32083;47.360;9.650;2023-02-18T11:02:24;1.88;;;1.15;;
46377;SDS011;32083;47.360;9.650;2023-02-18T11:04:54;2.28;;;1.38;;
46377;SDS011;32083;47.360;9.650;2023-02-18T11:07:27;2.53;;;1.40;;
46377;SDS011;32083;47.360;9.650;2023-02-18T11:10:01;5.90;;;1.77;;
46377;SDS011;32083;47.360;9.650;2023-02-18T11:12:43;2.58;;;2.15;;
46377;SDS011;32083;47.360;9.650;2023-02-18T11:15:22;3.83;;;1.70;;
46377;SDS011;32083;47.360;9.650;2023-02-18T11:17:51;4.20;;;1.98;;
46377;SDS011;32083;47.360;9.650;2023-02-18T11:25:50;2.80;;;1.67;;
46377;SDS011;32083;47.360;9.650;2023-02-18T11:30:46;4.75;;;1.67;;
46377;SDS011;32083;47.360;9.650;2023-02-18T11:33:18;3.88;;;1.58;;
46377;SDS011;32083;47.360;9.650;2023-02-18T11:35:48;2.72;;;1.20;;
46377;SDS011;32083;47.360;9.650;2023-02-18T11:38:23;2.35;;;1.60;;
46377;SDS011;32083;47.360;9.650;2023-02-18T11:40:58;6.60;;;1.20;;
46377;SDS011;32083;47.360;9.650;2023-02-18T11:43:33;5.43;;;1.70;;
46377;SDS011;32083;47.360;9.650;2023-02-18T11:46:10;3.88;;;1.90;;
46377;SDS011;32083;47.360;9.650;2023-02-18T11:48:36;1.85;;;0.70;;
46377;SDS011;32083;47.360;9.650;2023-02-18T11:51:03;6.05;;;1.30;;
46377;SDS011;32083;47.360;9.650;2023-02-18T11:53:33;2.42;;;0.85;;
46377;SDS011;32083;47.360;9.650;2023-02-18T11:56:04;1.65;;;1.00;;
46377;SDS011;32083;47.360;9.650;2023-02-18T11:58:42;3.00;;;0.93;;
46377;SDS011;32083;47.360;9.650;2023-02-18T12:06:32;3.85;;;1.55;;
46377;SDS011;32083;47.360;9.650;2023-02-18T12:09:19;1.60;;;1.27;;
46377;SDS011;32083;47.360;9.650;2023-02-18T12:12:05;5.32;;;0.93;;
46377;SDS011;32083;47.360;9.650;2023-02-18T12:14:40;1.63;;;1.00;;
46377;SDS011;32083;47.360;9.650;2023-02-18T12:19:56;2.33;;;1.10;;
46377;SDS011;32083;47.360;9.650;2023-02-18T12:22:44;3.22;;;1.10;;
46377;SDS011;32083;47.360;9.650;2023-02-18T12:25:35;3.22;;;1.23;;
46377;SDS011;32083;47.360;9.650;2023-02-18T12:28:47;2.15;;;1.10;;
46377;SDS011;32083;47.360;9.650;2023-02-18T12:34:13;2.85;;;1.05;;
46377;SDS011;32083;47.360;9.650;2023-02-18T12:42:56;2.33;;;1.30;;
46377;SDS011;32083;47.360;9.650;2023-02-18T12:51:27;1.70;;;0.80;;
46377;SDS011;32083;47.360;9.650;2023-02-18T12:59:48;3.90;;;1.50;;
46377;SDS011;32083;47.360;9.650;2023-02-18T13:05:23;2.90;;;1.77;;
46377;SDS011;32083;47.360;9.650;2023-02-18T13:13:38;2.50;;;1.85;;
46377;SDS011;32083;47.360;9.650;2023-02-18T13:16:15;3.70;;;1.58;;
46377;SDS011;32083;47.360;9.650;2023-02-18T13:19:06;3.67;;;1.80;;
46377;SDS011;32083;47.360;9.650;2023-02-18T13:21:45;2.78;;;1.95;;
46377;SDS011;32083;47.360;9.650;2023-02-18T13:24:24;3.17;;;1.48;;
46377;SDS011;32083;47.360;9.650;2023-02-18T13:26:52;4.75;;;1.58;;
46377;SDS011;32083;47.360;9.650;2023-02-18T13:29:33;2.42;;;1.50;;
46377;SDS011;32083;47.360;9.650;2023-02-18T13:34:53;3.00;;;2.00;;
46377;SDS011;32083;47.360;9.650;2023-02-18T13:39:52;3.17;;;2.10;;
46377;SDS011;32083;47.360;9.650;2023-02-18T13:50:27;5.85;;;3.00;;
46377;SDS011;32083;47.360;9.650;2023-02-18T13:55:38;5.07;;;2.25;;
46377;SDS011;32083;47.360;9.650;2023-02-18T13:58:24;4.82;;;2.30;;
46377;SDS011;32083;47.360;9.650;2023-02-18T14:01:02;4.95;;;2.60;;
46377;SDS011;32083;47.360;9.650;2023-02-18T14:08:43;6.35;;;2.80;;
46377;SDS011;32083;47.360;9.650;2023-02-18T14:13:43;3.05;;;2.60;;
46377;SDS011;32083;47.360;9.650;2023-02-18T14:16:13;4.20;;;2.80;;
46377;SDS011;32083;47.360;9.650;2023-02-18T14:26:28;4.05;;;2.67;;
46377;SDS011;32083;47.360;9.650;2023-02-18T14:29:04;2.80;;;2.40;;
46377;SDS011;32083;47.360;9.650;2023-02-18T14:31:52;3.75;;;2.22;;
46377;SDS011;32083;47.360;9.650;2023-02-18T14:34:33;4.37;;;2.30;;
46377;SDS011;32083;47.360;9.650;2023-02-18T14:37:10;5.05;;;2.10;;
46377;SDS011;32083;47.360;9.650;2023-02-18T14:51:15;5.45;;;2.58;;
46377;SDS011;32083;47.360;9.650;2023-02-18T14:53:44;4.88;;;2.42;;
46377;SDS011;32083;47.360;9.650;2023-02-18T14:56:12;4.03;;;2.72;;
46377;SDS011;32083;47.360;9.650;2023-02-18T14:58:43;6.65;;;2.40;;
46377;SDS011;32083;47.360;9.650;2023-02-18T15:01:31;3.85;;;2.50;;
46377;SDS011;32083;47.360;9.650;2023-02-18T15:03:59;5.75;;;2.97;;
46377;SDS011;32083;47.360;9.650;2023-02-18T15:06:36;5.43;;;2.30;;
46377;SDS011;32083;47.360;9.650;2023-02-18T15:09:12;4.57;;;2.53;;
46377;SDS011;32083;47.360;9.650;2023-02-18T15:11:47;3.35;;;2.17;;
46377;SDS011;32083;47.360;9.650;2023-02-18T15:14:36;2.50;;;1.90;;
46377;SDS011;32083;47.360;9.650;2023-02-18T15:17:04;3.33;;;2.10;;
46377;SDS011;32083;47.360;9.650;2023-02-18T15:19:37;6.40;;;2.13;;
46377;SDS011;32083;47.360;9.650;2023-02-18T15:22:12;3.70;;;1.90;;
46377;SDS011;32083;47.360;9.650;2023-02-18T15:24:44;4.47;;;2.08;;
46377;SDS011;32083;47.360;9.650;2023-02-18T15:27:11;3.67;;;2.20;;
46377;SDS011;32083;47.360;9.650;2023-02-18T15:29:38;3.78;;;2.22;;
46377;SDS011;32083;47.360;9.650;2023-02-18T15:32:15;3.90;;;2.30;;
46377;SDS011;32083;47.360;9.650;2023-02-18T15:34:52;3.55;;;2.47;;
46377;SDS011;32083;47.360;9.650;2023-02-18T15:37:26;3.88;;;2.20;;
46377;SDS011;32083;47.360;9.650;2023-02-18T15:39:52;4.30;;;2.88;;
46377;SDS011;32083;47.360;9.650;2023-02-18T15:42:23;5.35;;;2.50;;
46377;SDS011;32083;47.360;9.650;2023-02-18T15:45:18;3.22;;;2.42;;
46377;SDS011;32083;47.360;9.650;2023-02-18T15:47:45;2.47;;;2.25;;
46377;SDS011;32083;47.360;9.650;2023-02-18T15:50:17;4.07;;;2.45;;
46377;SDS011;32083;47.360;9.650;2023-02-18T15:52:45;3.78;;;2.00;;
46377;SDS011;32083;47.360;9.650;2023-02-18T15:55:14;2.88;;;2.00;;
46377;SDS011;32083;47.360;9.650;2023-02-18T15:57:50;3.30;;;2.20;;
46377;SDS011;32083;47.360;9.650;2023-02-18T16:00:20;3.80;;;2.40;;
46377;SDS011;32083;47.360;9.650;2023-02-18T16:03:02;6.43;;;2.33;;
46377;SDS011;32083;47.360;9.650;2023-02-18T16:05:37;4.07;;;2.30;;
46377;SDS011;32083;47.360;9.650;2023-02-18T16:08:12;3.67;;;2.10;;
46377;SDS011;32083;47.360;9.650;2023-02-18T16:10:41;5.07;;;2.95;;
46377;SDS011;32083;47.360;9.650;2023-02-18T16:13:10;4.60;;;3.50;;
46377;SDS011;32083;47.360;9.650;2023-02-18T16:15:39;4.78;;;3.58;;
46377;SDS011;32083;47.360;9.650;2023-02-18T16:18:18;6.03;;;4.15;;
46377;SDS011;32083;47.360;9.650;2023-02-18T16:20:52;4.78;;;2.78;;
46377;SDS011;32083;47.360;9.650;2023-02-18T16:23:35;4.38;;;2.50;;
46377;SDS011;32083;47.360;9.650;2023-02-18T16:29:20;3.70;;;3.33;;
46377;SDS011;32083;47.360;9.650;2023-02-18T16:31:49;3.65;;;2.65;;
46377;SDS011;32083;47.360;9.650;2023-02-18T16:34:15;7.82;;;5.18;;
46377;SDS011;32083;47.360;9.650;2023-02-18T16:36:41;5.60;;;3.20;;
46377;SDS011;32083;47.360;9.650;2023-02-18T16:39:28;4.22;;;2.67;;
46377;SDS011;32083;47.360;9.650;2023-02-18T16:41:57;5.93;;;3.90;;
46377;SDS011;32083;47.360;9.650;2023-02-18T16:44:23;4.25;;;3.38;;
46377;SDS011;32083;47.360;9.650;2023-02-18T16:46:49;3.90;;;3.45;;
46377;SDS011;32083;47.360;9.650;2023-02-18T16:49:15;4.97;;;3.05;;
46377;SDS011;32083;47.360;9.650;2023-02-18T16:51:42;5.63;;;3.17;;
46377;SDS011;32083;47.360;9.650;2023-02-18T16:54:11;2.53;;;2.30;;
46377;SDS011;32083;47.360;9.650;2023-02-18T16:56:38;3.47;;;2.33;;
46377;SDS011;32083;47.360;9.650;2023-02-18T16:59:04;4.70;;;2.10;;
46377;SDS011;32083;47.360;9.650;2023-02-18T17:04:01;11.35;;;2.92;;
46377;SDS011;32083;47.360;9.650;2023-02-18T17:06:28;4.60;;;2.50;;
46377;SDS011;32083;47.360;9.650;2023-02-18T17:08:54;3.78;;;2.55;;
46377;SDS011;32083;47.360;9.650;2023-02-18T17:11:24;3.97;;;2.95;;
46377;SDS011;32083;47.360;9.650;2023-02-18T17:13:53;3.60;;;2.38;;
46377;SDS011;32083;47.360;9.650;2023-02-18T17:16:22;3.47;;;1.95;;
46377;SDS011;32083;47.360;9.650;2023-02-18T17:18:48;4.22;;;2.20;;
46377;SDS011;32083;47.360;9.650;2023-02-18T17:21:15;2.92;;;1.90;;
46377;SDS011;32083;47.360;9.650;2023-02-18T17:23:42;3.45;;;2.30;;
46377;SDS011;32083;47.360;9.650;2023-02-18T17:26:19;3.38;;;2.20;;
46377;SDS011;32083;47.360;9.650;2023-02-18T17:28:49;7.97;;;3.00;;
46377;SDS011;32083;47.360;9.650;2023-02-18T17:31:18;5.30;;;2.97;;
46377;SDS011;32083;47.360;9.650;2023-02-18T17:33:48;3.05;;;2.45;;
46377;SDS011;32083;47.360;9.650;2023-02-18T17:36:14;4.25;;;2.45;;
46377;SDS011;32083;47.360;9.650;2023-02-18T17:38:40;3.10;;;2.78;;
46377;SDS011;32083;47.360;9.650;2023-02-18T17:41:06;3.95;;;3.28;;
46377;SDS011;32083;47.360;9.650;2023-02-18T17:43:32;5.07;;;3.10;;
46377;SDS011;32083;47.360;9.650;2023-02-18T17:45:58;2.78;;;2.22;;
46377;SDS011;32083;47.360;9.650;2023-02-18T17:48:25;4.82;;;2.40;;